Time;durP1;ratioP1;P1;durP2;ratioP2;P2;SDS_P1;SDS_P2;PMS_P1;PMS_P2;Temp;Humidity;BMP_temperature;BMP_pressure;BME280_temperature;BME280_humidity;BME280_pressure;Samples;Min_cycle;Max_cycle;Signal;HPM_P1;HPM_P2
2024/01/12 18:33:28;;;;;;;12.63;11.95;;;;;;;0.38;100.00;101895.66;6327408;27;20404;-89
2024/01/12 18:36:31;;;;;;;12.77;11.20;;;;;;;0.48;100.00;101894.66;6304597;28;20032;-89
2024/01/12 18:39:35;;;;;;;12.23;10.95;;;;;;;0.53;100.00;101892.88;6304083;28;20040;-88
2024/01/12 18:42:37;;;;;;;11.27;10.45;;;;;;;0.62;100.00;101891.88;6302096;28;20589;-89
2024/01/12 18:45:39;;;;;;;13.85;12.70;;;;;;;0.64;100.00;101874.88;6307884;28;20073;-86
2024/01/12 18:48:41;;;;;;;13.40;12.43;;;;;;;0.75;100.00;101878.09;6299435;28;20509;-85
2024/01/12 18:51:44;;;;;;;11.23;10.55;;;;;;;0.80;100.00;101875.47;6304935;28;20082;-85
2024/01/12 18:54:46;;;;;;;10.38;9.88;;;;;;;0.87;100.00;101874.53;6314106;28;20220;-85
2024/01/12 18:57:49;;;;;;;10.35;9.65;;;;;;;0.89;100.00;101870.22;6307505;28;20065;-85
2024/01/12 19:00:51;;;;;;;11.85;11.05;;;;;;;0.90;100.00;101874.47;6307193;28;20051;-86
2024/01/12 19:03:53;;;;;;;11.70;10.73;;;;;;;0.93;100.00;101864.19;6302966;28;20052;-85
2024/01/12 19:06:55;;;;;;;9.63;8.73;;;;;;;1.00;100.00;101865.78;6296798;28;20498;-89
2024/01/12 19:09:57;;;;;;;7.72;7.43;;;;;;;0.99;100.00;101858.97;6297660;28;20419;-88
2024/01/12 19:13:02;;;;;;;8.82;8.32;;;;;;;1.01;100.00;101848.78;6297082;28;20044;-88
2024/01/12 19:16:05;;;;;;;10.18;9.52;;;;;;;1.04;100.00;101841.06;6292843;28;20506;-89
2024/01/12 19:19:07;;;;;;;9.32;8.43;;;;;;;1.04;100.00;64539.38;6295516;28;20055;-88
2024/01/12 19:22:11;;;;;;;10.55;9.52;;;;;;;-145.48;100.00;64539.38;6304328;28;20040;-89
2024/01/12 19:25:13;;;;;;;9.63;9.02;;;;;;;-145.48;100.00;64539.38;6297179;28;20406;-89
2024/01/12 19:28:15;;;;;;;10.10;9.25;;;;;;;-145.48;100.00;64539.38;6304737;28;20040;-89
2024/01/12 19:31:22;;;;;;;8.95;8.25;;;;;;;-145.48;100.00;64539.38;6306100;28;20067;-89
2024/01/12 19:34:23;;;;;;;9.73;9.23;;;;;;;-145.48;100.00;64539.38;6301273;28;20046;-89
2024/01/12 19:37:29;;;;;;;8.40;8.00;;;;;;;-145.48;100.00;64539.38;6301856;28;20153;-88
2024/01/12 19:40:31;;;;;;;9.13;8.73;;;;;;;-145.48;100.00;64539.38;6300534;28;20094;-88
2024/01/12 19:43:33;;;;;;;9.93;9.23;;;;;;;-145.48;100.00;64539.38;6289686;28;20116;-88
2024/01/12 19:46:35;;;;;;;8.15;7.72;;;;;;;-145.48;100.00;64539.38;6289991;28;20105;-89
2024/01/12 19:49:37;;;;;;;9.15;8.60;;;;;;;-145.48;100.00;64539.38;6296152;28;20125;-88
2024/01/12 19:52:39;;;;;;;7.93;7.53;;;;;;;-145.48;100.00;64539.38;6288280;28;20045;-88
2024/01/12 19:55:41;;;;;;;8.57;8.00;;;;;;;-145.48;100.00;64539.38;6278461;28;20047;-89
2024/01/12 19:58:43;;;;;;;8.90;8.45;;;;;;;-145.48;100.00;64539.38;6278669;28;20037;-88
2024/01/12 20:01:46;;;;;;;9.02;8.65;;;;;;;-145.48;100.00;64539.38;6288772;28;20052;-89
2024/01/12 20:04:48;;;;;;;9.52;8.95;;;;;;;-145.48;100.00;64539.38;6291480;28;20556;-89
2024/01/12 20:07:50;;;;;;;9.35;8.77;;;;;;;-145.48;100.00;64539.38;6300334;28;20059;-88
2024/01/12 20:10:52;;;;;;;11.65;10.68;;;;;;;-145.48;100.00;64539.38;6264922;28;20572;-89
2024/01/12 20:13:54;;;;;;;8.10;7.60;;;;;;;-145.48;100.00;64539.38;6284118;28;20607;-89
2024/01/12 20:16:56;;;;;;;7.63;7.28;;;;;;;-145.48;100.00;64539.38;6274865;28;20036;-88
2024/01/12 20:19:58;;;;;;;8.70;8.30;;;;;;;-145.48;100.00;64539.38;6286120;28;20044;-88
2024/01/12 20:23:00;;;;;;;9.05;8.35;;;;;;;-145.48;100.00;64539.38;6272080;28;20673;-88
2024/01/12 20:26:05;;;;;;;8.45;8.13;;;;;;;-145.48;100.00;64539.38;6284042;28;20052;-89
2024/01/12 20:29:07;;;;;;;7.90;7.40;;;;;;;-145.48;100.00;64539.38;6281755;28;20437;-89
2024/01/12 20:32:09;;;;;;;7.68;7.28;;;;;;;-145.48;100.00;64539.38;6284844;28;20418;-88
2024/01/12 20:35:12;;;;;;;9.23;8.40;;;;;;;-145.48;100.00;64539.38;6287646;28;20486;-89
2024/01/12 20:38:14;;;;;;;8.27;7.47;;;;;;;-145.48;100.00;64539.38;6285943;28;20618;-89
2024/01/12 20:41:16;;;;;;;8.20;7.68;;;;;;;-145.48;100.00;64539.38;6284003;28;20056;-88
2024/01/12 20:44:17;;;;;;;9.88;9.18;;;;;;;-145.48;100.00;64539.38;6288245;28;20065;-88
2024/01/12 20:47:23;;;;;;;10.55;9.68;;;;;;;-145.48;100.00;64539.38;6288689;28;20045;-89
2024/01/12 20:50:25;;;;;;;8.98;8.43;;;;;;;-145.48;100.00;64539.38;6283322;28;20040;-88
2024/01/12 20:53:27;;;;;;;10.00;9.40;;;;;;;-145.48;100.00;64539.38;6287645;28;20048;-89
2024/01/12 20:56:29;;;;;;;9.05;8.30;;;;;;;-145.48;100.00;64539.38;6287354;28;20417;-88
2024/01/12 20:59:32;;;;;;;8.68;7.82;;;;;;;-145.48;100.00;64539.38;6280575;28;20112;-88
2024/01/12 21:02:34;;;;;;;7.57;7.18;;;;;;;-145.48;100.00;64539.38;6290307;28;20039;-88
2024/01/12 21:05:36;;;;;;;6.97;6.68;;;;;;;-145.48;100.00;64539.38;6279531;28;20573;-88
2024/01/12 21:08:38;;;;;;;9.93;9.23;;;;;;;-145.48;100.00;64539.38;6277747;28;20138;-88
2024/01/12 21:11:43;;;;;;;7.97;7.47;;;;;;;-145.48;100.00;64539.38;6285469;28;20052;-87
2024/01/12 21:14:44;;;;;;;7.40;7.07;;;;;;;-145.48;100.00;64539.38;6279817;28;20150;-88
2024/01/12 21:17:46;;;;;;;10.68;9.95;;;;;;;-145.48;100.00;64539.38;6278747;28;20063;-88
2024/01/12 21:20:49;;;;;;;8.27;7.75;;;;;;;-145.48;100.00;64539.38;6278672;28;20052;-88
2024/01/12 21:23:51;;;;;;;8.23;7.80;;;;;;;-145.48;100.00;64539.38;6282089;28;20498;-88
2024/01/12 21:26:53;;;;;;;8.38;7.88;;;;;;;-145.48;100.00;64539.38;6285518;28;20229;-88
2024/01/12 21:29:55;;;;;;;7.80;7.45;;;;;;;-145.48;100.00;64539.38;6280185;28;20650;-87
2024/01/12 21:32:58;;;;;;;7.78;7.47;;;;;;;-145.48;100.00;64539.38;6279938;28;20071;-87
2024/01/12 21:36:00;;;;;;;8.48;7.88;;;;;;;-145.48;100.00;64539.38;6289063;28;20136;-90
2024/01/12 21:39:05;;;;;;;8.65;8.15;;;;;;;-145.48;100.00;64539.38;6284993;28;20051;-86
2024/01/12 21:42:07;;;;;;;7.55;7.20;;;;;;;-145.48;100.00;64539.38;6288511;28;20508;-87
2024/01/12 21:45:09;;;;;;;9.23;8.45;;;;;;;-145.48;100.00;64539.38;6282676;28;20486;-89
2024/01/12 21:48:11;;;;;;;8.63;8.00;;;;;;;-145.48;100.00;64539.38;6285153;28;20055;-88
2024/01/12 21:51:14;;;;;;;7.22;6.85;;;;;;;-145.48;100.00;64539.38;6275383;28;20123;-89
2024/01/12 21:54:16;;;;;;;8.95;8.35;;;;;;;-145.48;100.00;64539.38;6284148;28;20101;-88
2024/01/12 21:57:19;;;;;;;9.65;9.13;;;;;;;-145.48;100.00;64539.38;6286956;28;20032;-89
2024/01/12 22:00:21;;;;;;;8.57;8.15;;;;;;;-145.48;100.00;64539.38;6268287;28;20418;-88
2024/01/12 22:03:25;;;;;;;7.32;7.03;;;;;;;-145.48;100.00;64539.38;6288468;28;20101;-89
2024/01/12 22:06:27;;;;;;;8.63;8.13;;;;;;;-145.48;100.00;64539.38;6276558;28;20166;-89
2024/01/12 22:09:30;;;;;;;8.43;7.75;;;;;;;-145.48;100.00;64539.38;6286538;28;20064;-88
2024/01/12 22:12:34;;;;;;;7.78;7.38;;;;;;;-145.48;100.00;64539.38;6286589;28;20089;-88
2024/01/12 22:15:36;;;;;;;9.27;8.57;;;;;;;-145.48;100.00;64539.38;6278008;28;20040;-88
2024/01/12 22:18:38;;;;;;;7.05;6.75;;;;;;;-145.48;100.00;64539.38;6284576;28;20402;-89
2024/01/12 22:21:40;;;;;;;9.65;9.02;;;;;;;-145.48;100.00;64539.38;6285670;28;20108;-88
2024/01/12 22:24:42;;;;;;;7.63;7.30;;;;;;;-145.48;100.00;64539.38;6282165;28;20405;-89
2024/01/12 22:27:45;;;;;;;7.40;6.78;;;;;;;-145.48;100.00;64539.38;6274428;28;20044;-88
2024/01/12 22:30:47;;;;;;;6.78;6.47;;;;;;;-145.48;100.00;64539.38;6284228;28;20139;-88
2024/01/12 22:33:50;;;;;;;7.97;7.35;;;;;;;-145.48;100.00;64539.38;6283618;28;20052;-88
2024/01/12 22:36:52;;;;;;;7.25;6.90;;;;;;;-145.48;100.00;64539.38;6292937;28;20805;-88
2024/01/12 22:39:54;;;;;;;6.78;6.47;;;;;;;-145.48;100.00;64539.38;6287554;28;20049;-88
2024/01/12 22:42:57;;;;;;;6.85;6.55;;;;;;;-145.48;100.00;64539.38;6289899;28;20560;-88
2024/01/12 22:45:59;;;;;;;8.13;7.72;;;;;;;-145.48;100.00;64539.38;6264991;28;20100;-88
2024/01/12 22:49:01;;;;;;;10.73;8.40;;;;;;;-145.48;100.00;64539.38;6287704;28;20044;-88
2024/01/12 22:52:04;;;;;;;8.32;7.85;;;;;;;-145.48;100.00;64539.38;6276887;28;20045;-89
2024/01/12 22:55:06;;;;;;;8.70;8.20;;;;;;;-145.48;100.00;64539.38;6279604;28;20735;-87
2024/01/12 22:58:08;;;;;;;7.60;7.20;;;;;;;-145.48;100.00;64539.38;6284782;28;20055;-88
2024/01/12 23:01:10;;;;;;;6.80;6.57;;;;;;;-145.48;100.00;64539.38;6283238;28;20383;-88
2024/01/12 23:04:12;;;;;;;7.90;7.50;;;;;;;-145.48;100.00;64539.38;6287617;28;20871;-89
2024/01/12 23:07:14;;;;;;;8.73;8.13;;;;;;;-145.48;100.00;64539.38;6277516;28;20044;-88
2024/01/12 23:10:16;;;;;;;7.88;7.57;;;;;;;-145.48;100.00;64539.38;6282558;28;20038;-88
2024/01/12 23:13:18;;;;;;;7.22;6.93;;;;;;;-145.48;100.00;64539.38;6284037;28;20079;-87
2024/01/12 23:16:20;;;;;;;7.80;7.47;;;;;;;-145.48;100.00;64539.38;6283899;28;20044;-87
2024/01/12 23:19:22;;;;;;;9.35;8.65;;;;;;;-145.48;100.00;64539.38;6286287;28;20045;-88
2024/01/12 23:22:24;;;;;;;6.90;6.60;;;;;;;-145.48;100.00;64539.38;6291362;28;20051;-89
2024/01/12 23:25:27;;;;;;;8.68;8.13;;;;;;;-145.48;100.00;64539.38;6282376;28;20427;-88
2024/01/12 23:28:30;;;;;;;7.78;7.38;;;;;;;-145.48;100.00;64539.38;6288944;28;20040;-88
2024/01/12 23:31:32;;;;;;;8.15;7.55;;;;;;;-145.48;100.00;64539.38;6288574;28;20040;-88
2024/01/12 23:34:34;;;;;;;8.80;8.30;;;;;;;-145.48;100.00;64539.38;6281070;28;20036;-88
2024/01/12 23:37:36;;;;;;;9.13;8.45;;;;;;;-145.48;100.00;64539.38;6288837;28;20036;-88
2024/01/12 23:40:38;;;;;;;8.60;8.20;;;;;;;-145.48;100.00;64539.38;6285281;28;20111;-88
2024/01/12 23:43:41;;;;;;;6.55;6.35;;;;;;;-145.48;100.00;64539.38;6286859;28;20131;-88
2024/01/12 23:46:42;;;;;;;8.45;8.05;;;;;;;-145.48;100.00;64539.38;6283103;28;20078;-88
2024/01/12 23:49:46;;;;;;;8.60;8.18;;;;;;;-145.48;100.00;64539.38;6280874;28;20517;-89
2024/01/12 23:52:48;;;;;;;9.30;8.77;;;;;;;-145.48;100.00;64539.38;6285473;28;20159;-88
2024/01/12 23:55:51;;;;;;;10.10;9.23;;;;;;;-145.48;100.00;64539.38;6279593;28;20049;-88
2024/01/12 23:58:52;;;;;;;10.35;9.48;;;;;;;-145.48;100.00;64539.38;6290540;28;20072;-88
